Time;durP1;ratioP1;P1;durP2;ratioP2;P2;SDS_P1;SDS_P2;PMS_P1;PMS_P2;Temp;Humidity;BMP_temperature;BMP_pressure;BME280_temperature;BME280_humidity;BME280_pressure;Samples;Min_cycle;Max_cycle;Signal;HPM_P1;HPM_P2
2022/02/13 00:01:34;;;;;;;;;;;;;;;16.74;50.55;99799.72;4415921;32;20003;-71
2022/02/13 00:03:59;;;;;;;;;;;;;;;16.98;50.11;99802.25;4415392;32;20018;-71
2022/02/13 00:06:25;;;;;;;;;;;;;;;17.01;50.41;99789.88;4416484;32;20335;-71
2022/02/13 00:08:50;;;;;;;;;;;;;;;17.35;49.41;99783.12;4418096;32;20415;-71
2022/02/13 00:11:16;;;;;;;;;;;;;;;17.46;49.11;99781.16;4417927;32;20300;-71
2022/02/13 00:13:42;;;;;;;;;;;;;;;17.38;48.75;99794.28;4417146;32;20352;-71
2022/02/13 00:16:07;;;;;;;;;;;;;;;17.18;49.19;99783.00;4418758;32;20326;-71
2022/02/13 00:18:34;;;;;;;;;;;;;;;17.37;48.68;99787.00;4413723;32;19983;-71
2022/02/13 00:21:00;;;;;;;;;;;;;;;17.33;48.45;99775.09;4413277;32;19954;-71
2022/02/13 00:23:25;;;;;;;;;;;;;;;17.30;48.75;99778.97;4401013;32;19961;-71
2022/02/13 00:25:51;;;;;;;;;;;;;;;17.00;49.78;99769.19;4416340;32;20030;-70
2022/02/13 00:28:17;;;;;;;;;;;;;;;17.18;49.49;99768.81;4415480;32;20344;-71
2022/02/13 00:30:46;;;;;;;;;;;;;;;17.47;48.73;99770.56;4417060;32;20019;-70
2022/02/13 00:33:13;;;;;;;;;;;;;;;17.34;48.93;99756.75;4415023;32;20388;-70
2022/02/13 00:35:38;;;;;;;;;;;;;;;17.21;49.50;99758.50;4414614;32;19976;-71
2022/02/13 00:38:05;;;;;;;;;;;;;;;17.03;49.85;99744.69;4407690;32;19993;-71
2022/02/13 00:40:30;;;;;;;;;;;;;;;17.21;49.56;99742.19;4418574;32;19957;-71
2022/02/13 00:42:56;;;;;;;;;;;;;;;17.16;49.71;99747.84;4415968;32;19966;-71
2022/02/13 00:45:22;;;;;;;;;;;;;;;17.41;49.08;99750.59;4414129;32;19985;-71
2022/02/13 00:47:47;;;;;;;;;;;;;;;17.59;48.70;99753.06;4404233;32;20006;-71
2022/02/13 00:50:13;;;;;;;;;;;;;;;17.55;48.40;99746.81;4416281;32;20008;-71
2022/02/13 00:52:39;;;;;;;;;;;;;;;17.36;48.92;99742.00;4417318;32;19954;-71
2022/02/13 00:55:05;;;;;;;;;;;;;;;17.64;48.19;99740.91;4412652;32;19968;-71
2022/02/13 00:57:31;;;;;;;;;;;;;;;17.70;48.33;99733.16;4417455;32;19996;-71
2022/02/13 00:59:56;;;;;;;;;;;;;;;17.60;48.53;99734.69;4415152;32;19990;-71
2022/02/13 01:02:22;;;;;;;;;;;;;;;17.46;48.50;99732.78;4412901;32;20652;-71
2022/02/13 01:04:47;;;;;;;;;;;;;;;17.63;48.49;99725.13;4414216;32;19973;-71
2022/02/13 01:07:13;;;;;;;;;;;;;;;17.51;49.05;99737.75;4414903;32;19985;-71
2022/02/13 01:09:39;;;;;;;;;;;;;;;17.56;49.02;99719.13;4407069;32;20016;-71
2022/02/13 01:12:06;;;;;;;;;;;;;;;17.54;48.96;99725.34;4414568;32;20012;-71
2022/02/13 01:14:31;;;;;;;;;;;;;;;17.79;48.20;99713.03;4416523;32;19949;-72
2022/02/13 01:16:57;;;;;;;;;;;;;;;17.82;48.30;99723.38;4413921;32;19957;-72
2022/02/13 01:19:22;;;;;;;;;;;;;;;17.71;48.12;99717.63;4418630;32;20557;-72
2022/02/13 01:21:48;;;;;;;;;;;;;;;17.43;49.05;99718.84;4414686;32;20250;-71
2022/02/13 01:24:13;;;;;;;;;;;;;;;17.35;49.46;99717.72;4410776;32;20293;-72
2022/02/13 01:26:39;;;;;;;;;;;;;;;17.72;48.59;99702.13;4413569;32;20025;-71
2022/02/13 01:29:05;;;;;;;;;;;;;;;17.61;49.16;99712.69;4415292;32;19994;-72
2022/02/13 01:31:30;;;;;;;;;;;;;;;17.52;49.38;99701.56;4414969;32;19997;-72
2022/02/13 01:33:56;;;;;;;;;;;;;;;17.53;49.47;99695.34;4414058;32;19990;-71
2022/02/13 01:36:21;;;;;;;;;;;;;;;17.67;49.15;99693.56;4413327;32;20016;-71
2022/02/13 01:38:47;;;;;;;;;;;;;;;17.55;49.68;99694.84;4417034;32;19996;-72
2022/02/13 01:41:13;;;;;;;;;;;;;;;17.50;49.85;99682.16;4417615;32;20367;-72
2022/02/13 01:43:38;;;;;;;;;;;;;;;17.59;50.01;99684.78;4418609;32;20572;-72
2022/02/13 01:46:04;;;;;;;;;;;;;;;17.66;49.79;99672.09;4418462;32;20013;-71
2022/02/13 01:48:30;;;;;;;;;;;;;;;17.58;49.99;99654.75;4416173;32;19964;-72
2022/02/13 01:50:56;;;;;;;;;;;;;;;17.65;49.72;99671.31;4419489;32;19989;-72
2022/02/13 01:53:22;;;;;;;;;;;;;;;17.71;49.68;99663.56;4415056;32;20001;-71
2022/02/13 01:55:48;;;;;;;;;;;;;;;17.60;50.15;99671.31;4417592;32;19962;-71
2022/02/13 01:58:15;;;;;;;;;;;;;;;17.72;49.53;99665.16;4418447;32;19954;-70
2022/02/13 02:00:41;;;;;;;;;;;;;;;17.65;49.72;99665.63;4420747;32;20028;-70
2022/02/13 02:03:07;;;;;;;;;;;;;;;17.71;49.81;99660.72;4418133;32;19999;-70
2022/02/13 02:05:33;;;;;;;;;;;;;;;17.77;49.63;99652.22;4420493;32;20000;-70
2022/02/13 02:07:58;;;;;;;;;;;;;;;17.85;49.47;99653.25;4419328;32;19993;-70
2022/02/13 02:10:24;;;;;;;;;;;;;;;17.86;49.45;99649.91;4421528;32;19954;-70
2022/02/13 02:12:51;;;;;;;;;;;;;;;18.01;49.32;99652.50;4416168;32;19961;-70
2022/02/13 02:15:16;;;;;;;;;;;;;;;18.08;49.18;99649.16;4417023;32;20023;-70
2022/02/13 02:17:42;;;;;;;;;;;;;;;18.13;48.86;99642.69;4417771;32;20388;-70
2022/02/13 02:20:08;;;;;;;;;;;;;;;18.21;48.75;99640.09;4419723;32;19972;-70
2022/02/13 02:22:33;;;;;;;;;;;;;;;18.20;48.82;99639.34;4415491;32;20034;-70
2022/02/13 02:24:59;;;;;;;;;;;;;;;17.80;49.27;99629.19;4417395;32;19987;-70
2022/02/13 02:27:24;;;;;;;;;;;;;;;18.04;48.59;99633.63;4417272;32;19973;-70
2022/02/13 02:29:50;;;;;;;;;;;;;;;17.91;48.88;99621.97;4416472;32;20326;-70
2022/02/13 02:32:16;;;;;;;;;;;;;;;17.91;49.03;99616.28;4405689;32;19993;-70
2022/02/13 02:34:42;;;;;;;;;;;;;;;18.15;48.75;99616.53;4416742;32;20451;-70
2022/02/13 02:37:08;;;;;;;;;;;;;;;17.92;48.90;99617.84;4416476;32;19957;-70
2022/02/13 02:39:34;;;;;;;;;;;;;;;17.74;49.42;99607.72;4420481;32;20001;-69
2022/02/13 02:42:00;;;;;;;;;;;;;;;17.89;49.10;99608.25;4416352;32;19972;-70
2022/02/13 02:44:26;;;;;;;;;;;;;;;17.67;49.71;99599.66;4414587;32;19950;-70
2022/02/13 02:46:51;;;;;;;;;;;;;;;17.62;49.84;99587.00;4417445;32;19983;-70
2022/02/13 02:49:17;;;;;;;;;;;;;;;17.88;48.79;99586.78;4417540;32;19953;-70
2022/02/13 02:51:42;;;;;;;;;;;;;;;17.80;49.35;99583.66;4415376;32;20069;-70
2022/02/13 02:54:08;;;;;;;;;;;;;;;18.00;49.05;99565.56;4415201;32;20380;-70
2022/02/13 02:56:33;;;;;;;;;;;;;;;17.86;49.29;99566.59;4417696;32;19953;-70
2022/02/13 02:58:59;;;;;;;;;;;;;;;18.13;48.65;99573.59;4418859;32;20013;-70
2022/02/13 03:01:25;;;;;;;;;;;;;;;18.21;48.53;99566.84;4414362;32;20347;-70
2022/02/13 03:03:50;;;;;;;;;;;;;;;18.01;48.63;99563.50;4415195;32;19969;-70
2022/02/13 03:06:16;;;;;;;;;;;;;;;18.13;48.17;99551.56;4415836;32;19972;-70
2022/02/13 03:08:41;;;;;;;;;;;;;;;17.75;49.04;99549.50;4419025;32;20257;-70
2022/02/13 03:11:07;;;;;;;;;;;;;;;18.20;48.47;99545.38;4415582;32;19961;-70
2022/02/13 03:13:32;;;;;;;;;;;;;;;17.86;48.93;99536.06;4418859;32;19972;-70
2022/02/13 03:15:58;;;;;;;;;;;;;;;18.08;48.67;99532.44;4415726;32;20387;-70
2022/02/13 03:18:24;;;;;;;;;;;;;;;18.22;48.50;99531.38;4413521;32;19975;-70
2022/02/13 03:20:51;;;;;;;;;;;;;;;18.02;48.75;99533.72;4418144;32;20068;-70
2022/02/13 03:23:18;;;;;;;;;;;;;;;17.76;49.24;99529.06;4412306;32;19996;-70
2022/02/13 03:25:44;;;;;;;;;;;;;;;17.76;49.96;99526.22;4417460;32;20373;-70
2022/02/13 03:28:09;;;;;;;;;;;;;;;17.86;49.83;99523.91;4417782;32;19957;-70
2022/02/13 03:30:35;;;;;;;;;;;;;;;17.66;50.71;99521.31;4413725;32;19961;-70
2022/02/13 03:33:02;;;;;;;;;;;;;;;17.97;50.28;99514.59;4417907;32;20019;-70
2022/02/13 03:35:28;;;;;;;;;;;;;;;17.85;50.49;99508.13;4417698;32;20004;-70
2022/02/13 03:37:53;;;;;;;;;;;;;;;18.12;50.00;99506.53;4415865;32;20450;-70
2022/02/13 03:40:19;;;;;;;;;;;;;;;18.19;49.97;99503.19;4417682;32;20418;-70
2022/02/13 03:42:44;;;;;;;;;;;;;;;18.36;49.63;99503.91;4413834;32;20433;-70
2022/02/13 03:45:11;;;;;;;;;;;;;;;18.49;48.91;99495.59;4416400;32;20243;-70
2022/02/13 03:47:39;;;;;;;;;;;;;;;18.57;48.90;99490.94;4420816;32;20003;-70
2022/02/13 03:50:04;;;;;;;;;;;;;;;18.70;49.07;99482.59;4417381;32;19957;-71
2022/02/13 03:52:30;;;;;;;;;;;;;;;18.71;48.97;99484.13;4414281;32;20302;-70
2022/02/13 03:54:55;;;;;;;;;;;;;;;18.82;48.45;99484.09;4414949;32;20015;-70
2022/02/13 03:57:21;;;;;;;;;;;;;;;18.91;48.69;99469.53;4414979;32;20044;-70
2022/02/13 03:59:47;;;;;;;;;;;;;;;18.94;48.29;99474.19;4415717;32;19961;-70
2022/02/13 04:02:13;;;;;;;;;;;;;;;18.80;48.46;99470.34;4415203;32;20331;-70
2022/02/13 04:04:39;;;;;;;;;;;;;;;18.91;48.39;99458.13;4414620;32;20178;-70
2022/02/13 04:07:04;;;;;;;;;;;;;;;18.77;48.68;99454.31;4415103;32;20009;-70
2022/02/13 04:09:31;;;;;;;;;;;;;;;18.91;48.28;99452.44;4417168;32;19957;-70
2022/02/13 04:11:57;;;;;;;;;;;;;;;18.91;48.12;99449.56;4416769;32;19973;-70
2022/02/13 04:14:22;;;;;;;;;;;;;;;18.77;48.23;99442.91;4417946;32;19957;-70
2022/02/13 04:16:48;;;;;;;;;;;;;;;18.67;48.22;99441.66;4415565;32;20411;-70
2022/02/13 04:19:13;;;;;;;;;;;;;;;18.67;48.07;99443.75;4415637;32;20440;-70
2022/02/13 04:21:39;;;;;;;;;;;;;;;18.74;48.07;99437.47;4416084;32;20370;-70
2022/02/13 04:24:05;;;;;;;;;;;;;;;18.63;48.15;99434.69;4417717;32;20001;-70
2022/02/13 04:26:31;;;;;;;;;;;;;;;18.43;49.10;99426.47;4415768;32;19997;-70
2022/02/13 04:28:57;;;;;;;;;;;;;;;18.47;48.59;99419.22;4416961;32;20307;-70
2022/02/13 04:31:22;;;;;;;;;;;;;;;18.20;49.53;99419.28;4406007;32;19994;-70
2022/02/13 04:33:48;;;;;;;;;;;;;;;18.22;49.71;99420.31;4415763;32;20020;-70
2022/02/13 04:36:13;;;;;;;;;;;;;;;18.24;49.62;99425.50;4419420;32;20022;-70
2022/02/13 04:38:39;;;;;;;;;;;;;;;18.17;50.19;99409.75;4415146;32;19953;-70
2022/02/13 04:41:06;;;;;;;;;;;;;;;18.48;49.58;99403.69;4416096;32;20016;-70
2022/02/13 04:43:32;;;;;;;;;;;;;;;18.58;49.55;99395.59;4414745;32;20019;-70
2022/02/13 04:45:57;;;;;;;;;;;;;;;18.42;49.91;99394.41;4418215;32;20001;-70
2022/02/13 04:48:22;;;;;;;;;;;;;;;17.94;51.05;99396.84;4418821;32;20133;-69
2022/02/13 04:50:48;;;;;;;;;;;;;;;17.89;51.27;99383.44;4417925;32;20388;-69
2022/02/13 04:53:15;;;;;;;;;;;;;;;18.21;50.76;99387.44;4417254;32;20573;-69
2022/02/13 04:55:40;;;;;;;;;;;;;;;18.29;50.27;99379.16;4412885;32;19978;-69
2022/02/13 04:58:06;;;;;;;;;;;;;;;17.93;51.51;99358.31;4415748;32;20366;-69
2022/02/13 05:00:31;;;;;;;;;;;;;;;18.19;50.85;99357.97;4417913;32;19953;-69
2022/02/13 05:02:58;;;;;;;;;;;;;;;18.21;50.79;99355.34;4418257;32;19972;-69
2022/02/13 05:05:24;;;;;;;;;;;;;;;18.32;50.35;99349.62;4414758;32;20004;-69
2022/02/13 05:07:49;;;;;;;;;;;;;;;18.31;49.93;99348.06;4415666;32;20015;-69
2022/02/13 05:10:15;;;;;;;;;;;;;;;18.51;50.00;99347.72;4415078;32;20448;-69
2022/02/13 05:12:41;;;;;;;;;;;;;;;18.36;49.69;99339.50;4416601;32;20004;-69
2022/02/13 05:15:09;;;;;;;;;;;;;;;18.20;50.44;99337.50;4420934;32;19949;-69
2022/02/13 05:17:35;;;;;;;;;;;;;;;18.26;50.17;99329.72;4420921;32;20345;-69
2022/02/13 05:20:01;;;;;;;;;;;;;;;18.24;50.10;99335.16;4420402;32;19968;-69
2022/02/13 05:22:26;;;;;;;;;;;;;;;18.28;50.14;99327.09;4417633;32;19984;-69
2022/02/13 05:24:52;;;;;;;;;;;;;;;18.23;50.38;99325.06;4417509;32;19954;-70
2022/02/13 05:27:18;;;;;;;;;;;;;;;17.77;51.46;99316.44;4419938;32;19954;-70
2022/02/13 05:29:43;;;;;;;;;;;;;;;17.57;51.96;99328.91;4419449;32;20007;-70
2022/02/13 05:32:09;;;;;;;;;;;;;;;17.88;51.41;99311.50;4419557;32;19993;-70
2022/02/13 05:34:35;;;;;;;;;;;;;;;18.19;50.59;99310.31;4420809;32;20335;-70
2022/02/13 05:37:01;;;;;;;;;;;;;;;17.86;51.23;99310.47;4421089;32;20326;-70
2022/02/13 05:39:26;;;;;;;;;;;;;;;17.62;51.62;99305.34;4425298;32;20002;-70
2022/02/13 05:41:52;;;;;;;;;;;;;;;17.96;51.19;99291.00;4419784;32;20067;-70
2022/02/13 05:44:18;;;;;;;;;;;;;;;17.94;51.23;99285.09;4418456;32;19957;-70
2022/02/13 05:46:44;;;;;;;;;;;;;;;17.77;51.51;99271.69;4421979;32;20121;-70
2022/02/13 05:49:09;;;;;;;;;;;;;;;18.21;50.40;99270.72;4421849;32;19997;-70
2022/02/13 05:51:36;;;;;;;;;;;;;;;18.41;49.91;99278.91;4423182;32;19949;-70
2022/02/13 05:54:02;;;;;;;;;;;;;;;18.34;49.71;99264.41;4421831;32;19954;-70
2022/02/13 05:56:28;;;;;;;;;;;;;;;18.50;49.50;99269.28;4418561;32;19958;-70
2022/02/13 05:58:53;;;;;;;;;;;;;;;18.06;50.39;99269.47;4422321;32;20025;-70
2022/02/13 06:01:19;;;;;;;;;;;;;;;17.91;50.21;99275.50;4422930;32;19952;-70
2022/02/13 06:03:45;;;;;;;;;;;;;;;17.76;51.08;99264.44;4421083;32;20030;-70
2022/02/13 06:06:11;;;;;;;;;;;;;;;17.94;50.53;99253.78;4422653;32;19965;-70
2022/02/13 06:08:37;;;;;;;;;;;;;;;17.79;50.87;99240.66;4420681;32;20003;-70
2022/02/13 06:11:03;;;;;;;;;;;;;;;17.60;51.09;99238.91;4421668;32;20004;-70
2022/02/13 06:13:28;;;;;;;;;;;;;;;17.63;51.36;99235.81;4416030;32;21058;-70
2022/02/13 06:15:54;;;;;;;;;;;;;;;17.36;51.62;99225.25;4422339;32;19993;-70
2022/02/13 06:18:20;;;;;;;;;;;;;;;17.36;52.04;99201.72;4420337;32;19997;-70
2022/02/13 06:20:45;;;;;;;;;;;;;;;17.19;52.57;99209.53;4421240;32;20004;-70
2022/02/13 06:23:12;;;;;;;;;;;;;;;17.20;52.52;99223.22;4415885;32;20297;-70
2022/02/13 06:25:37;;;;;;;;;;;;;;;17.00;52.94;99208.53;4418481;32;20706;-70
2022/02/13 06:28:04;;;;;;;;;;;;;;;17.53;51.85;99211.78;4419868;32;19995;-70
2022/02/13 06:30:30;;;;;;;;;;;;;;;17.51;51.81;99214.38;4422688;32;19969;-70
2022/02/13 06:32:57;;;;;;;;;;;;;;;17.46;51.95;99209.47;4417470;32;20304;-70
2022/02/13 06:35:24;;;;;;;;;;;;;;;17.33;51.79;99209.22;4421043;32;20337;-70
2022/02/13 06:37:49;;;;;;;;;;;;;;;17.80;50.90;99205.19;4420602;32;19995;-70
2022/02/13 06:40:16;;;;;;;;;;;;;;;17.65;50.98;99196.19;4405886;32;19992;-70
2022/02/13 06:42:41;;;;;;;;;;;;;;;17.73;50.74;99190.75;4417721;32;19962;-70
2022/02/13 06:45:08;;;;;;;;;;;;;;;17.66;51.02;99191.28;4417496;32;19958;-69
2022/02/13 06:47:34;;;;;;;;;;;;;;;17.14;52.19;99177.00;4418972;32;20004;-69
2022/02/13 06:49:59;;;;;;;;;;;;;;;16.93;52.53;99181.44;4420510;32;19961;-70
2022/02/13 06:52:25;;;;;;;;;;;;;;;16.94;52.88;99168.00;4417663;32;20038;-70
2022/02/13 06:54:51;;;;;;;;;;;;;;;17.00;52.26;99163.09;4418405;32;20034;-70
2022/02/13 06:57:18;;;;;;;;;;;;;;;16.96;52.71;99162.56;4419980;32;20323;-70
2022/02/13 06:59:43;;;;;;;;;;;;;;;17.22;52.02;99157.31;4419651;32;20026;-70
2022/02/13 07:02:10;;;;;;;;;;;;;;;17.26;51.42;99164.28;4416787;32;20038;-70
2022/02/13 07:04:37;;;;;;;;;;;;;;;17.15;51.78;99172.09;4418612;32;19956;-70
2022/02/13 07:07:04;;;;;;;;;;;;;;;17.32;51.29;99153.69;4419196;32;20266;-70
2022/02/13 07:09:30;;;;;;;;;;;;;;;17.80;50.04;99134.06;4420923;32;20013;-70
2022/02/13 07:11:58;;;;;;;;;;;;;;;17.56;50.60;99133.94;4418867;32;19968;-70
2022/02/13 07:14:24;;;;;;;;;;;;;;;17.17;51.31;99141.06;4416141;32;20003;-70
2022/02/13 07:16:49;;;;;;;;;;;;;;;17.78;49.86;99113.12;4416820;32;20069;-70
2022/02/13 07:19:15;;;;;;;;;;;;;;;17.69;49.94;99102.06;4417752;32;19953;-70
2022/02/13 07:21:41;;;;;;;;;;;;;;;17.47;50.31;99105.03;4415647;32;20278;-70
2022/02/13 07:24:06;;;;;;;;;;;;;;;17.42;50.15;99112.25;4417895;32;20012;-70
2022/02/13 07:26:32;;;;;;;;;;;;;;;17.30;50.34;99098.59;4416099;32;19988;-70
2022/02/13 07:29:00;;;;;;;;;;;;;;;17.75;49.45;99097.09;4416629;32;19950;-70
2022/02/13 07:31:27;;;;;;;;;;;;;;;17.76;49.39;99095.81;4420227;32;19953;-70
2022/02/13 07:33:52;;;;;;;;;;;;;;;17.55;49.25;99080.44;4413526;32;19965;-70
2022/02/13 07:36:18;;;;;;;;;;;;;;;17.22;50.25;99064.31;4415785;32;20004;-70
2022/02/13 07:38:43;;;;;;;;;;;;;;;17.34;50.17;99060.06;4418999;32;20008;-69
2022/02/13 07:41:09;;;;;;;;;;;;;;;17.75;49.07;99080.03;4416573;32;19973;-69
2022/02/13 07:43:34;;;;;;;;;;;;;;;17.35;49.69;99073.03;4415244;32;20030;-69
2022/02/13 07:46:00;;;;;;;;;;;;;;;17.46;49.48;99064.44;4420540;32;20081;-69
2022/02/13 07:48:25;;;;;;;;;;;;;;;17.63;49.29;99056.59;4420255;32;20399;-69
2022/02/13 07:50:51;;;;;;;;;;;;;;;17.04;50.54;99050.69;4418345;32;19989;-69
2022/02/13 07:53:17;;;;;;;;;;;;;;;17.05;50.59;99086.31;4418529;32;19987;-69
2022/02/13 07:55:43;;;;;;;;;;;;;;;17.11;50.47;99047.28;4417469;32;19993;-69
2022/02/13 07:58:09;;;;;;;;;;;;;;;17.28;50.19;99059.34;4418737;32;20035;-69
2022/02/13 08:00:35;;;;;;;;;;;;;;;16.93;51.04;99045.03;4418897;32;19963;-69
2022/02/13 08:03:00;;;;;;;;;;;;;;;16.80;51.27;99029.84;4417219;32;19941;-70
2022/02/13 08:05:26;;;;;;;;;;;;;;;16.78;51.38;99044.56;4417560;32;20388;-69
2022/02/13 08:07:51;;;;;;;;;;;;;;;16.89;51.27;99026.72;4417322;32;20018;-69
2022/02/13 08:10:17;;;;;;;;;;;;;;;16.64;51.75;99039.19;4418443;32;20368;-69
2022/02/13 08:12:43;;;;;;;;;;;;;;;16.40;52.24;99024.78;4415330;32;19968;-69
2022/02/13 08:15:09;;;;;;;;;;;;;;;16.86;51.35;99025.69;4415143;32;19954;-69
2022/02/13 08:17:35;;;;;;;;;;;;;;;16.48;52.48;99035.13;4416935;32;19971;-69
2022/02/13 08:20:03;;;;;;;;;;;;;;;16.75;52.13;99011.53;4417878;32;19965;-69
2022/02/13 08:22:29;;;;;;;;;;;;;;;16.51;52.70;99011.34;4414801;32;19997;-69
2022/02/13 08:24:54;;;;;;;;;;;;;;;16.16;52.89;99019.66;4416638;32;20643;-69
2022/02/13 08:27:20;;;;;;;;;;;;;;;16.18;53.08;99028.44;4416676;32;20443;-69
2022/02/13 08:29:47;;;;;;;;;;;;;;;16.04;53.19;98995.41;4415928;32;19958;-69
2022/02/13 08:32:13;;;;;;;;;;;;;;;16.26;52.67;98997.47;4417974;32;19994;-69
2022/02/13 08:34:39;;;;;;;;;;;;;;;16.64;51.77;98991.69;4415362;32;20538;-69
2022/02/13 08:37:04;;;;;;;;;;;;;;;16.58;51.86;98993.78;4423072;32;20004;-69
2022/02/13 08:39:30;;;;;;;;;;;;;;;16.01;53.21;99004.22;4404716;32;19997;-69
2022/02/13 08:41:55;;;;;;;;;;;;;;;16.08;52.89;98989.50;4414288;32;20036;-69
2022/02/13 08:44:21;;;;;;;;;;;;;;;16.40;52.47;99000.00;4402547;32;19994;-69
2022/02/13 08:46:47;;;;;;;;;;;;;;;16.02;53.17;99000.84;4404862;32;19973;-69
2022/02/13 08:49:12;;;;;;;;;;;;;;;16.46;52.58;98991.50;4419519;32;20005;-69
2022/02/13 08:51:38;;;;;;;;;;;;;;;16.37;52.71;98992.53;4422180;32;19990;-70
2022/02/13 08:54:03;;;;;;;;;;;;;;;16.33;52.88;98983.50;4420467;32;19992;-70
2022/02/13 08:56:29;;;;;;;;;;;;;;;16.41;52.62;98976.00;4418201;32;20036;-70
2022/02/13 08:58:55;;;;;;;;;;;;;;;16.08;53.00;98986.66;4419133;32;19945;-70
2022/02/13 09:01:21;;;;;;;;;;;;;;;15.96;53.46;98983.81;4420269;32;20306;-70
2022/02/13 09:03:46;;;;;;;;;;;;;;;15.88;53.96;98979.19;4416925;32;19958;-70
2022/02/13 09:06:12;;;;;;;;;;;;;;;15.68;54.10;98976.62;4418921;32;19961;-70
2022/02/13 09:08:37;;;;;;;;;;;;;;;15.95;53.43;98978.66;4423119;32;19994;-70
2022/02/13 09:11:03;;;;;;;;;;;;;;;16.01;53.24;98961.66;4423684;32;20013;-70
2022/02/13 09:13:30;;;;;;;;;;;;;;;15.76;53.76;98963.47;4422847;32;20685;-71
2022/02/13 09:15:55;;;;;;;;;;;;;;;15.97;53.51;98953.41;4418331;32;19989;-71
2022/02/13 09:18:21;;;;;;;;;;;;;;;15.45;54.23;98938.22;4418760;32;19969;-71
2022/02/13 09:20:47;;;;;;;;;;;;;;;15.61;53.81;98945.94;4418726;32;20010;-72
2022/02/13 09:23:14;;;;;;;;;;;;;;;15.34;54.17;98946.69;4421115;32;20004;-71
2022/02/13 09:25:40;;;;;;;;;;;;;;;15.58;53.63;98944.13;4419612;32;19968;-70
2022/02/13 09:28:06;;;;;;;;;;;;;;;15.15;54.77;98937.91;4418738;32;19981;-70
2022/02/13 09:30:32;;;;;;;;;;;;;;;15.38;54.39;98922.53;4422563;32;19961;-70
2022/02/13 09:32:57;;;;;;;;;;;;;;;15.51;53.93;98927.66;4418838;32;19977;-71
2022/02/13 09:35:23;;;;;;;;;;;;;;;15.51;53.56;98916.31;4419398;32;20008;-71
2022/02/13 09:37:50;;;;;;;;;;;;;;;15.65;53.40;98904.69;4419295;32;20298;-71
2022/02/13 09:40:17;;;;;;;;;;;;;;;15.25;54.27;98910.87;4421062;32;19993;-71
2022/02/13 09:42:44;;;;;;;;;;;;;;;14.95;54.88;98906.22;4418521;32;19961;-71
2022/02/13 09:45:10;;;;;;;;;;;;;;;15.08;54.94;98892.31;4415596;32;20354;-71
2022/02/13 09:47:38;;;;;;;;;;;;;;;15.31;54.33;98886.13;4420571;32;19969;-71
2022/02/13 09:50:04;;;;;;;;;;;;;;;15.52;53.81;98889.50;4421298;32;19962;-71
2022/02/13 09:52:30;;;;;;;;;;;;;;;15.48;53.88;98883.34;4419689;32;19990;-72
2022/02/13 09:54:55;;;;;;;;;;;;;;;15.76;53.44;98867.84;4418444;32;20005;-72
2022/02/13 10:00:07;;;;;;;;;;;;;;;15.52;53.96;98875.31;4418566;32;19967;-72
2022/02/13 10:02:34;;;;;;;;;;;;;;;15.85;52.83;98867.56;4417172;32;20005;-72
2022/02/13 10:05:00;;;;;;;;;;;;;;;15.77;52.93;98862.91;4421759;32;20018;-71
2022/02/13 10:07:25;;;;;;;;;;;;;;;15.53;53.29;98869.12;4420445;32;19953;-71
2022/02/13 10:09:59;;;;;;;;;;;;;;;15.28;53.17;98866.56;4419288;32;19962;-71
2022/02/13 10:12:38;;;;;;;;;;;;;;;15.65;52.89;98859.34;4418133;32;19992;-72
2022/02/13 10:15:25;;;;;;;;;;;;;;;15.51;52.35;98849.06;4405192;32;19996;-71
2022/02/13 10:17:59;;;;;;;;;;;;;;;15.63;52.64;98842.09;4405512;32;20291;-71
2022/02/13 10:20:25;;;;;;;;;;;;;;;15.56;52.72;98845.44;4420921;32;20357;-71
2022/02/13 10:22:50;;;;;;;;;;;;;;;15.20;53.12;98837.19;4419126;32;20462;-72
2022/02/13 10:25:17;;;;;;;;;;;;;;;15.23;53.05;98819.16;4418634;32;19958;-71
2022/02/13 10:27:45;;;;;;;;;;;;;;;15.00;53.29;98843.13;4417848;32;19970;-71
2022/02/13 10:30:10;;;;;;;;;;;;;;;15.31;53.08;98814.53;4422956;32;19954;-72
2022/02/13 10:32:39;;;;;;;;;;;;;;;15.51;52.74;98800.88;4418877;32;20078;-71
2022/02/13 10:35:06;;;;;;;;;;;;;;;15.50;52.70;98801.38;4416374;32;19999;-71
2022/02/13 10:37:40;;;;;;;;;;;;;;;15.13;53.22;98803.72;4418201;32;19988;-71
2022/02/13 10:40:07;;;;;;;;;;;;;;;15.53;52.89;98794.69;4402499;32;19949;-71
2022/02/13 10:42:32;;;;;;;;;;;;;;;15.25;53.01;98791.09;4417061;32;20438;-71
2022/02/13 10:45:18;;;;;;;;;;;;;;;15.06;53.54;98790.06;4417342;32;20001;-71
2022/02/13 10:47:45;;;;;;;;;;;;;;;15.27;52.98;98780.00;4419579;32;20562;-72
2022/02/13 10:50:13;;;;;;;;;;;;;;;15.44;52.79;98769.44;4417593;32;19950;-72
2022/02/13 10:52:39;;;;;;;;;;;;;;;15.17;53.13;98758.91;4416674;32;19993;-72
2022/02/13 10:55:04;;;;;;;;;;;;;;;15.21;53.17;98754.53;4416761;32;19993;-72
2022/02/13 10:57:30;;;;;;;;;;;;;;;15.21;53.52;98748.06;4417502;32;20001;-71
2022/02/13 10:59:55;;;;;;;;;;;;;;;15.36;53.14;98734.38;4419437;32;19996;-71
2022/02/13 11:02:24;;;;;;;;;;;;;;;15.67;52.39;98743.34;4421157;32;20000;-71
2022/02/13 11:04:50;;;;;;;;;;;;;;;15.43;52.82;98733.88;4405879;32;19941;-71
2022/02/13 11:07:16;;;;;;;;;;;;;;;15.09;53.31;98718.22;4417321;32;20004;-70
2022/02/13 11:09:42;;;;;;;;;;;;;;;15.00;53.66;98722.09;4416670;32;20376;-70
2022/02/13 11:12:08;;;;;;;;;;;;;;;15.27;53.52;98717.66;4418883;32;21008;-71
2022/02/13 11:14:40;;;;;;;;;;;;;;;15.17;53.84;98716.41;4417051;32;20035;-71
2022/02/13 11:17:06;;;;;;;;;;;;;;;15.02;54.15;98698.91;4418833;32;20225;-71
2022/02/13 11:19:33;;;;;;;;;;;;;;;15.00;54.25;98702.28;4418901;32;19962;-71
2022/02/13 11:21:58;;;;;;;;;;;;;;;14.97;54.29;98691.22;4416340;32;20617;-71
2022/02/13 11:24:26;;;;;;;;;;;;;;;15.22;53.96;98675.97;4415740;32;20016;-72
2022/02/13 11:26:52;;;;;;;;;;;;;;;15.15;54.29;98679.31;4415981;32;19954;-71
2022/02/13 11:29:18;;;;;;;;;;;;;;;14.99;54.72;98657.47;4416740;32;20355;-71
2022/02/13 11:31:50;;;;;;;;;;;;;;;14.97;54.76;98663.66;4417452;32;19996;-71
2022/02/13 11:37:09;;;;;;;;;;;;;;;15.29;54.15;98639.38;3952124;32;15774489;-71
2022/02/13 11:39:42;;;;;;;;;;;;;;;15.29;54.15;98639.38;4433811;32;19953;-71
2022/02/13 11:42:15;;;;;;;;;;;;;;;15.37;54.11;98623.38;4434809;32;19976;-71
2022/02/13 11:47:18;;;;;;;;;;;;;;;15.84;53.20;98599.37;3953162;32;15723059;-70
2022/02/13 11:50:03;;;;;;;;;;;;;;;15.84;53.20;98599.37;4430814;32;20011;-71
2022/02/13 11:52:30;;;;;;;;;;;;;;;15.66;53.42;98590.75;4415990;32;19991;-71
2022/02/13 11:54:56;;;;;;;;;;;;;;;15.37;53.39;98583.69;4428690;32;20009;-68
2022/02/13 11:57:22;;;;;;;;;;;;;;;15.16;54.14;98590.22;4431341;32;19949;-69
2022/02/13 12:10:25;;;;;;;;;;;;;;;15.75;53.73;98540.19;3952022;32;15722361;-70
2022/02/13 12:12:52;;;;;;;;;;;;;;;15.75;53.73;98540.19;4429498;32;20000;-72
2022/02/13 12:15:23;;;;;;;;;;;;;;;15.03;54.56;98522.03;4429526;32;19957;-71
2022/02/13 12:17:50;;;;;;;;;;;;;;;15.32;54.47;98524.97;4431524;32;20398;-72
2022/02/13 12:20:17;;;;;;;;;;;;;;;14.84;55.10;98524.69;4427864;32;20350;-71
2022/02/13 12:22:44;;;;;;;;;;;;;;;15.35;54.51;98514.66;4430645;32;20056;-71
2022/02/13 12:25:10;;;;;;;;;;;;;;;15.25;54.37;98499.25;4428849;32;20232;-71
2022/02/13 12:27:37;;;;;;;;;;;;;;;15.44;54.20;98500.19;4428675;32;19984;-71
2022/02/13 12:30:04;;;;;;;;;;;;;;;15.34;54.34;98488.38;4429565;32;20514;-71
2022/02/13 12:32:30;;;;;;;;;;;;;;;15.14;54.62;98497.25;4427493;32;20411;-70
2022/02/13 12:35:01;;;;;;;;;;;;;;;15.27;54.70;98483.25;4428498;32;20050;-70
2022/02/13 12:40:11;;;;;;;;;;;;;;;15.88;53.10;98455.25;3954226;32;15727546;-70
2022/02/13 12:42:39;;;;;;;;;;;;;;;15.88;53.10;98455.25;4408495;32;20097;-71
2022/02/13 12:45:08;;;;;;;;;;;;;;;15.07;54.55;98429.06;4430899;32;20032;-71
2022/02/13 12:47:34;;;;;;;;;;;;;;;15.28;54.61;98447.97;4431047;32;20236;-72
2022/02/13 12:50:01;;;;;;;;;;;;;;;14.98;55.22;98435.81;4431363;32;19953;-71
2022/02/13 12:52:28;;;;;;;;;;;;;;;14.99;54.92;98416.75;4427779;32;20315;-71
2022/02/13 12:54:54;;;;;;;;;;;;;;;15.10;55.13;98406.09;4429384;32;20287;-72
2022/02/13 12:57:22;;;;;;;;;;;;;;;15.04;55.20;98404.62;4430216;32;20414;-72
2022/02/13 12:59:48;;;;;;;;;;;;;;;14.94;55.21;98390.00;4431753;32;20008;-72
2022/02/13 13:02:22;;;;;;;;;;;;;;;15.07;54.93;98376.00;4428166;32;20023;-72